首页
METAR-TAF:

METAR-TAF

机场 :

Ingenika Point, 不列颠哥伦比亚, 加拿大

纬度: 56-48N, 经度: 124-54W, 海拔: 680米

当前天气观测

该预报发布于29分钟前的13:35 UTC
风速20节,风向北转东北
温度 1°C
湿度 100%
气压 997 hPa
能見度: 8.0公里
阴天层高于500英尺
小雪, 轻雾

METAR: CWWU 221335Z 02020KT 5SM -SN BR OVC005 01/01 A2945 RMK SF8 SLP973

时间: 07:04 (14:04 UTC)

预报

该预报发布于2小时和4分钟前的12:00 UTC
预报有效从22日的 12点(UTC)到 23日的 12点(UTC)
风速15节,风向北转东北,有时为25节阵风
能見度: 9.7公里
阴天层高于800英尺
小雨, 轻雾
短暂存在
从 22日的 12点(UTC)到 22日的 18点(UTC)
能見度: 3.2公里
阴天层高于500英尺
雨, 轻雾
从 22日的 1800点(UTC)
风速20节,风向,有时为30节阵风
能見度: 6.4公里
阴天层高于600英尺
小雨, 轻雾
短暂存在
从 22日的 18点(UTC)到 23日的 00点(UTC)
能見度: 1.6公里
阴天层高于400英尺
小毛毛雨, 轻雾
从 23日的 0000点(UTC)
风速20节,风向北转西北,有时为30节阵风
能見度: 9.7公里
阴天层高于800英尺
小雨, 雪, 轻雾
从 23日的 0800点(UTC)
风速20节,风向北转西北,有时为30节阵风
能見度: 9.7公里
阴天层高于1200英尺
小雨

TAF: CWWU 221200Z 2212/2312 03015G25KT 6SM -RA BR OVC008 TEMPO 2212/2218 2SM RA BR OVC005 FM221800 36020G30KT 4SM -RA BR OVC006 TEMPO 2218/2300 1SM -DZ BR OVC004 FM230000 33020G30KT 6SM -RASN BR OVC008 FM230800 33020G30KT 6SM -RA OVC012 RMK NXT FCST BY 221800Z

超过4000个机场的气象观测和天气预报(METAR&TAF报告)。

可查询的气象台以黄色和红色小点在地图上表示。

将鼠标移到小点上方,可查看气象台名称。

然后点击查看天气观测和预报。

如需切换地图:点击带黑十字的绿色按钮放大地图;点击带横线的绿色按钮缩小地图;或者点击绿色箭头查看邻近地区的地图。


METAR-TAF: